Time;durP1;ratioP1;P1;durP2;ratioP2;P2;SDS_P1;SDS_P2;PMS_P1;PMS_P2;Temp;Humidity;BMP_temperature;BMP_pressure;BME280_temperature;BME280_humidity;BME280_pressure;Samples;Min_cycle;Max_cycle;Signal;HPM_P1;HPM_P2
2023/08/12 00:00:14;;;;;;;;;6.67;6.67;;;;;;;;5102396;27;47108;-77
2023/08/12 00:02:41;;;;;;;;;5.33;5.00;;;;;;;;5102124;27;47486;-77
2023/08/12 00:05:07;;;;;;;;;8.00;8.00;;;;;;;;5102246;27;45381;-77
2023/08/12 00:07:32;;;;;;;;;5.67;5.67;;;;;;;;5120785;27;45673;-76
2023/08/12 00:09:58;;;;;;;;;7.00;5.00;;;;;;;;5120780;27;45388;-75
2023/08/12 00:12:23;;;;;;;;;7.00;7.00;;;;;;;;5120781;27;45322;-76
2023/08/12 00:14:49;;;;;;;;;7.33;7.33;;;;;;;;5102193;27;45543;-76
2023/08/12 00:17:14;;;;;;;;;8.00;6.33;;;;;;;;5123443;27;45584;-76
2023/08/12 00:19:39;;;;;;;;;5.00;5.00;;;;;;;;5105571;27;47384;-76
2023/08/12 00:22:04;;;;;;;;;5.00;5.00;;;;;;;;5105749;27;48176;-76
2023/08/12 00:24:29;;;;;;;;;6.33;6.33;;;;;;;;5115021;27;45418;-76
2023/08/12 00:26:55;;;;;;;;;6.67;6.33;;;;;;;;5124517;27;45434;-76
2023/08/12 00:29:20;;;;;;;;;4.00;4.00;;;;;;;;5114739;27;46433;-76
2023/08/12 00:31:45;;;;;;;;;6.67;6.67;;;;;;;;5144940;27;46282;-76
2023/08/12 00:34:11;;;;;;;;;5.00;5.00;;;;;;;;5126005;27;45482;-76
2023/08/12 00:36:37;;;;;;;;;3.33;3.33;;;;;;;;5125684;27;45337;-76
2023/08/12 00:39:03;;;;;;;;;7.00;4.33;;;;;;;;5123505;27;45433;-75
2023/08/12 00:41:28;;;;;;;;;6.33;6.33;;;;;;;;5123385;27;45910;-76
2023/08/12 00:43:54;;;;;;;;;4.67;4.67;;;;;;;;5123694;27;45290;-76
2023/08/12 00:46:19;;;;;;;;;5.00;5.00;;;;;;;;5124272;27;45230;-76
2023/08/12 00:48:44;;;;;;;;;5.67;5.33;;;;;;;;5123989;27;45452;-76
2023/08/12 00:51:10;;;;;;;;;5.00;5.00;;;;;;;;5123632;27;46158;-76
2023/08/12 00:53:36;;;;;;;;;4.00;4.00;;;;;;;;5105437;27;45871;-76
2023/08/12 00:56:01;;;;;;;;;5.00;5.00;;;;;;;;5124018;27;45278;-76
2023/08/12 00:58:26;;;;;;;;;5.67;5.00;;;;;;;;5123745;27;45489;-76
2023/08/12 01:00:51;;;;;;;;;7.00;5.67;;;;;;;;5105058;27;47815;-75
2023/08/12 01:03:16;;;;;;;;;6.00;6.00;;;;;;;;5123792;27;45400;-76
2023/08/12 01:05:42;;;;;;;;;4.67;4.00;;;;;;;;5105112;27;45274;-76
2023/08/12 01:08:07;;;;;;;;;5.00;5.00;;;;;;;;5123656;27;45369;-76
2023/08/12 01:10:37;;;;;;;;;5.00;5.00;;;;;;;;5123662;27;45260;-76
2023/08/12 01:13:05;;;;;;;;;4.67;4.67;;;;;;;;5123568;27;45311;-75
2023/08/12 01:15:31;;;;;;;;;6.33;6.33;;;;;;;;5104001;27;45379;-75
2023/08/12 01:17:57;;;;;;;;;6.33;6.33;;;;;;;;5123557;27;45556;-75
2023/08/12 01:20:24;;;;;;;;;5.33;5.33;;;;;;;;5123169;27;45380;-75
2023/08/12 01:22:55;;;;;;;;;5.00;5.00;;;;;;;;5123432;27;45369;-75
2023/08/12 01:25:20;;;;;;;;;6.67;5.67;;;;;;;;5104898;27;45270;-75
2023/08/12 01:27:46;;;;;;;;;3.00;3.00;;;;;;;;5122271;27;45506;-75
2023/08/12 01:30:11;;;;;;;;;7.00;5.00;;;;;;;;5139463;27;45361;-76
2023/08/12 01:32:53;;;;;;;;;5.67;5.67;;;;;;;;5125521;27;45333;-76
2023/08/12 01:35:35;;;;;;;;;6.33;5.33;;;;;;;;5143875;27;45379;-76
2023/08/12 01:38:02;;;;;;;;;6.00;5.67;;;;;;;;5144008;27;45524;-76
2023/08/12 01:40:28;;;;;;;;;6.67;6.00;;;;;;;;5143892;27;46359;-76
2023/08/12 01:42:53;;;;;;;;;5.67;5.67;;;;;;;;5125030;27;45263;-75
2023/08/12 01:45:19;;;;;;;;;5.00;5.00;;;;;;;;5125326;27;45287;-75
2023/08/12 01:47:44;;;;;;;;;4.00;4.00;;;;;;;;5144000;27;45205;-76
2023/08/12 01:50:09;;;;;;;;;7.67;7.00;;;;;;;;5124982;27;48488;-74
2023/08/12 01:52:35;;;;;;;;;4.33;4.33;;;;;;;;5124861;27;45626;-75
2023/08/12 01:55:00;;;;;;;;;6.00;6.00;;;;;;;;5143952;27;45249;-74
2023/08/12 01:57:25;;;;;;;;;6.67;6.67;;;;;;;;5143696;27;45269;-74
2023/08/12 01:59:51;;;;;;;;;9.00;8.00;;;;;;;;5124864;27;47302;-74
2023/08/12 02:02:16;;;;;;;;;6.00;6.00;;;;;;;;5143711;27;45414;-74
2023/08/12 02:04:42;;;;;;;;;7.67;7.00;;;;;;;;5143403;27;45706;-74
2023/08/12 02:07:08;;;;;;;;;9.33;9.00;;;;;;;;5143402;27;45396;-74
2023/08/12 02:09:33;;;;;;;;;7.33;7.33;;;;;;;;5143416;27;45243;-75
2023/08/12 02:11:58;;;;;;;;;9.00;9.00;;;;;;;;5124646;27;45401;-76
2023/08/12 02:14:23;;;;;;;;;7.00;6.00;;;;;;;;5143683;27;45309;-77
2023/08/12 02:16:49;;;;;;;;;7.33;6.67;;;;;;;;5143332;27;45413;-76
2023/08/12 02:19:14;;;;;;;;;8.33;8.33;;;;;;;;5124786;27;47609;-74
2023/08/12 02:21:39;;;;;;;;;8.33;7.00;;;;;;;;5124217;27;45547;-76
2023/08/12 02:24:05;;;;;;;;;7.00;6.33;;;;;;;;5124648;27;45561;-76
2023/08/12 02:26:30;;;;;;;;;5.67;5.67;;;;;;;;5143208;27;45449;-76
2023/08/12 02:28:55;;;;;;;;;5.33;5.33;;;;;;;;5137474;27;45421;-76
2023/08/12 02:31:20;;;;;;;;;6.00;6.00;;;;;;;;5122422;27;45301;-76
2023/08/12 02:33:46;;;;;;;;;5.00;4.67;;;;;;;;5122503;27;45321;-76
2023/08/12 02:36:11;;;;;;;;;2.67;2.67;;;;;;;;5122014;27;45342;-76
2023/08/12 02:38:36;;;;;;;;;5.00;4.00;;;;;;;;5121968;27;45557;-76
2023/08/12 02:41:01;;;;;;;;;3.33;3.33;;;;;;;;5100114;27;45313;-76
2023/08/12 02:43:26;;;;;;;;;5.00;4.00;;;;;;;;5100227;27;45429;-77
2023/08/12 02:45:52;;;;;;;;;6.67;6.67;;;;;;;;5101525;27;45189;-76
2023/08/12 02:48:17;;;;;;;;;8.67;7.00;;;;;;;;5101418;27;45147;-76
2023/08/12 02:50:42;;;;;;;;;6.67;6.67;;;;;;;;5099940;27;45290;-76
2023/08/12 02:53:08;;;;;;;;;5.00;5.00;;;;;;;;5101317;27;45365;-76
2023/08/12 02:55:33;;;;;;;;;5.00;5.00;;;;;;;;5101371;27;45234;-75
2023/08/12 02:57:59;;;;;;;;;5.67;5.67;;;;;;;;5099912;27;47394;-76
2023/08/12 03:00:24;;;;;;;;;7.33;7.00;;;;;;;;5099828;27;45264;-75
2023/08/12 03:02:49;;;;;;;;;6.00;5.00;;;;;;;;5101344;27;45188;-76
2023/08/12 03:05:15;;;;;;;;;5.33;5.33;;;;;;;;5100954;27;45148;-76
2023/08/12 03:07:40;;;;;;;;;8.00;6.33;;;;;;;;5101181;27;45286;-76
2023/08/12 03:10:05;;;;;;;;;6.00;6.00;;;;;;;;5101151;27;45356;-77
2023/08/12 03:12:30;;;;;;;;;5.67;5.67;;;;;;;;5101213;27;45321;-76
2023/08/12 03:14:56;;;;;;;;;5.00;5.00;;;;;;;;5099783;27;47269;-76
2023/08/12 03:17:21;;;;;;;;;3.33;3.33;;;;;;;;5100984;27;45460;-76
2023/08/12 03:19:46;;;;;;;;;6.00;6.00;;;;;;;;5100927;27;45349;-76
2023/08/12 03:22:11;;;;;;;;;3.00;3.00;;;;;;;;5099583;27;45342;-76
2023/08/12 03:24:36;;;;;;;;;5.67;4.33;;;;;;;;5100746;27;45538;-75
2023/08/12 03:27:02;;;;;;;;;5.67;5.67;;;;;;;;5099418;27;47221;-76
2023/08/12 03:29:27;;;;;;;;;5.33;5.33;;;;;;;;5100641;27;45456;-76
2023/08/12 03:31:52;;;;;;;;;4.00;4.00;;;;;;;;5099584;27;45350;-77
2023/08/12 03:34:17;;;;;;;;;4.00;3.00;;;;;;;;5099386;27;46609;-76
2023/08/12 03:36:43;;;;;;;;;4.00;4.00;;;;;;;;5100404;27;45361;-76
2023/08/12 03:39:08;;;;;;;;;3.00;3.00;;;;;;;;5100839;27;45381;-76
2023/08/12 03:41:34;;;;;;;;;3.25;3.00;;;;;;;;5118281;27;45425;-77
2023/08/12 03:43:59;;;;;;;;;3.00;3.00;;;;;;;;5141929;27;45554;-77
2023/08/12 03:46:24;;;;;;;;;3.33;3.33;;;;;;;;5123249;27;48004;-77
2023/08/12 03:48:49;;;;;;;;;3.00;3.00;;;;;;;;5123370;27;45342;-77
2023/08/12 03:51:14;;;;;;;;;2.67;2.67;;;;;;;;5122189;27;45316;-77
2023/08/12 03:53:39;;;;;;;;;3.00;3.00;;;;;;;;5141903;27;45372;-77
2023/08/12 03:56:05;;;;;;;;;2.00;2.00;;;;;;;;5141812;27;45360;-77
2023/08/12 03:58:30;;;;;;;;;3.00;3.00;;;;;;;;5141873;27;45339;-76
2023/08/12 04:00:55;;;;;;;;;2.00;2.00;;;;;;;;5141990;27;45317;-77
2023/08/12 04:03:20;;;;;;;;;2.00;2.00;;;;;;;;5123162;27;45569;-77
2023/08/12 04:05:49;;;;;;;;;2.00;2.00;;;;;;;;5141514;27;45534;-77
2023/08/12 04:08:15;;;;;;;;;3.00;3.00;;;;;;;;5141672;27;45290;-77
2023/08/12 04:10:40;;;;;;;;;2.00;2.00;;;;;;;;5141792;27;45132;-77
2023/08/12 04:13:06;;;;;;;;;2.67;2.67;;;;;;;;5141539;27;45410;-76
2023/08/12 04:15:31;;;;;;;;;1.67;1.67;;;;;;;;5122829;27;47728;-76
2023/08/12 04:17:56;;;;;;;;;2.67;2.67;;;;;;;;5141597;27;45257;-75
2023/08/12 04:20:22;;;;;;;;;3.67;3.00;;;;;;;;5141493;27;45319;-76
2023/08/12 04:22:47;;;;;;;;;3.00;3.00;;;;;;;;5141541;27;45514;-76
2023/08/12 04:25:12;;;;;;;;;3.00;3.00;;;;;;;;5122790;27;48332;-76
2023/08/12 04:27:37;;;;;;;;;1.50;1.50;;;;;;;;5141492;27;45214;-76
2023/08/12 04:30:03;;;;;;;;;2.00;2.00;;;;;;;;5126276;27;45462;-77
2023/08/12 04:32:28;;;;;;;;;2.00;2.00;;;;;;;;5120577;27;45519;-76
2023/08/12 04:34:53;;;;;;;;;1.67;1.67;;;;;;;;5120437;27;45422;-77
2023/08/12 04:37:18;;;;;;;;;2.00;2.00;;;;;;;;5120484;27;45376;-77
2023/08/12 04:39:43;;;;;;;;;3.00;3.00;;;;;;;;5120794;27;45355;-77
2023/08/12 04:42:09;;;;;;;;;0.00;0.00;;;;;;;;5120250;27;45294;-77
2023/08/12 04:44:34;;;;;;;;;2.00;2.00;;;;;;;;5120295;27;45399;-77
2023/08/12 04:46:59;;;;;;;;;2.00;2.00;;;;;;;;5119796;27;45424;-77
2023/08/12 04:49:25;;;;;;;;;4.00;4.00;;;;;;;;5119453;27;45366;-77
2023/08/12 04:51:51;;;;;;;;;3.33;2.00;;;;;;;;5118524;27;45287;-77
2023/08/12 04:54:16;;;;;;;;;2.00;2.00;;;;;;;;5118558;27;45329;-77
2023/08/12 04:56:41;;;;;;;;;2.67;2.00;;;;;;;;5119164;27;45467;-78
2023/08/12 04:59:08;;;;;;;;;3.00;3.00;;;;;;;;5120257;27;45208;-78
2023/08/12 05:01:33;;;;;;;;;4.00;4.00;;;;;;;;5120338;27;45208;-77
2023/08/12 05:03:58;;;;;;;;;2.00;2.00;;;;;;;;5123582;27;45332;-77
2023/08/12 05:06:24;;;;;;;;;2.33;2.00;;;;;;;;5123490;27;45282;-77
2023/08/12 05:08:49;;;;;;;;;2.67;2.00;;;;;;;;5123881;27;45279;-78
2023/08/12 05:11:14;;;;;;;;;4.67;2.33;;;;;;;;5123503;27;45222;-77
2023/08/12 05:13:39;;;;;;;;;3.00;3.00;;;;;;;;5123614;27;46269;-78
2023/08/12 05:16:05;;;;;;;;;3.00;2.33;;;;;;;;5104919;27;45259;-78
2023/08/12 05:18:30;;;;;;;;;2.00;2.00;;;;;;;;5123689;27;45177;-78
2023/08/12 05:20:55;;;;;;;;;2.00;2.00;;;;;;;;5104682;27;47187;-77
2023/08/12 05:23:21;;;;;;;;;2.00;2.00;;;;;;;;5104811;27;46722;-77
2023/08/12 05:25:46;;;;;;;;;1.00;1.00;;;;;;;;5123529;27;45282;-77
2023/08/12 05:28:11;;;;;;;;;4.00;3.00;;;;;;;;5123568;27;45129;-77
2023/08/12 05:30:37;;;;;;;;;3.00;3.00;;;;;;;;5143317;27;45330;-76
2023/08/12 05:33:02;;;;;;;;;2.50;2.50;;;;;;;;5144034;27;45436;-76
2023/08/12 05:35:28;;;;;;;;;2.00;2.00;;;;;;;;5143579;27;45341;-77
2023/08/12 05:37:53;;;;;;;;;2.00;2.00;;;;;;;;5125612;27;45395;-78
2023/08/12 05:40:18;;;;;;;;;2.50;2.50;;;;;;;;5144036;27;45355;-75
2023/08/12 05:42:43;;;;;;;;;3.00;3.00;;;;;;;;5122135;27;45447;-77
2023/08/12 05:45:08;;;;;;;;;5.00;4.00;;;;;;;;5116015;27;45408;-76
2023/08/12 05:47:34;;;;;;;;;3.33;2.00;;;;;;;;5112109;27;45428;-76
2023/08/12 05:49:59;;;;;;;;;3.00;3.00;;;;;;;;5092276;27;46026;-76
2023/08/12 05:52:24;;;;;;;;;2.67;2.67;;;;;;;;5112588;27;45971;-75
2023/08/12 05:54:49;;;;;;;;;2.00;2.00;;;;;;;;5093520;27;45490;-76
2023/08/12 05:57:15;;;;;;;;;2.00;2.00;;;;;;;;5103412;27;45527;-76
2023/08/12 05:59:40;;;;;;;;;3.67;3.67;;;;;;;;5102198;27;45484;-75
2023/08/12 06:02:06;;;;;;;;;1.00;1.00;;;;;;;;5102119;27;45381;-74
2023/08/12 06:04:31;;;;;;;;;1.75;1.75;;;;;;;;5102023;27;45354;-74
2023/08/12 06:06:56;;;;;;;;;2.67;2.67;;;;;;;;5102366;27;45439;-76
2023/08/12 06:09:21;;;;;;;;;2.00;1.00;;;;;;;;5102105;27;45410;-75
2023/08/12 06:11:46;;;;;;;;;2.00;2.00;;;;;;;;5094900;27;48055;-75
2023/08/12 06:14:12;;;;;;;;;3.67;3.67;;;;;;;;5103520;27;45774;-79
2023/08/12 06:16:37;;;;;;;;;2.00;2.00;;;;;;;;5122766;27;45262;-78
2023/08/12 06:19:02;;;;;;;;;2.00;2.00;;;;;;;;5112140;27;46009;-79
2023/08/12 06:21:27;;;;;;;;;2.00;2.00;;;;;;;;5109597;27;45682;-78
2023/08/12 06:23:52;;;;;;;;;3.33;3.33;;;;;;;;5096915;27;45317;-80
2023/08/12 06:26:18;;;;;;;;;3.33;3.33;;;;;;;;5103918;27;45290;-80
2023/08/12 06:28:43;;;;;;;;;4.00;4.00;;;;;;;;5126032;27;45194;-78
2023/08/12 06:31:08;;;;;;;;;3.00;2.33;;;;;;;;5125364;27;45212;-78
2023/08/12 06:33:33;;;;;;;;;4.33;4.00;;;;;;;;5103955;27;45903;-80
2023/08/12 06:35:58;;;;;;;;;4.00;3.67;;;;;;;;5122270;27;45141;-79
2023/08/12 06:38:24;;;;;;;;;3.00;3.00;;;;;;;;5122180;27;45258;-79
2023/08/12 06:40:49;;;;;;;;;3.75;3.75;;;;;;;;5122022;27;46661;-79
2023/08/12 06:43:14;;;;;;;;;2.67;2.67;;;;;;;;5122250;27;45331;-80
2023/08/12 06:45:39;;;;;;;;;2.00;2.00;;;;;;;;5122213;27;45538;-78
2023/08/12 06:48:04;;;;;;;;;2.00;2.00;;;;;;;;5122205;27;45412;-80
2023/08/12 06:50:30;;;;;;;;;3.25;3.25;;;;;;;;5121373;27;46251;-79
2023/08/12 06:52:55;;;;;;;;;4.33;4.33;;;;;;;;5122722;27;45299;-80
2023/08/12 06:55:20;;;;;;;;;3.67;3.67;;;;;;;;5121207;27;45198;-77
2023/08/12 06:57:46;;;;;;;;;4.00;4.00;;;;;;;;5121062;27;45217;-75
2023/08/12 07:00:11;;;;;;;;;3.00;3.00;;;;;;;;5102645;27;47518;-76
2023/08/12 07:02:36;;;;;;;;;3.33;2.33;;;;;;;;5119668;27;46011;-76
2023/08/12 07:05:01;;;;;;;;;4.00;4.00;;;;;;;;5144049;27;45305;-76
2023/08/12 07:07:27;;;;;;;;;3.00;3.00;;;;;;;;5129818;27;45819;-75
2023/08/12 07:09:52;;;;;;;;;3.00;3.00;;;;;;;;5101867;27;46913;-75
2023/08/12 07:12:17;;;;;;;;;3.00;3.00;;;;;;;;5121131;27;45518;-75
2023/08/12 07:14:42;;;;;;;;;3.33;3.33;;;;;;;;5119537;27;45463;-77
2023/08/12 07:17:07;;;;;;;;;4.00;4.00;;;;;;;;5099041;27;45950;-75
2023/08/12 07:19:33;;;;;;;;;5.00;4.00;;;;;;;;5121330;27;45400;-75
2023/08/12 07:21:58;;;;;;;;;3.00;3.00;;;;;;;;5120516;27;45432;-76
2023/08/12 07:24:23;;;;;;;;;2.25;2.00;;;;;;;;5102476;27;45470;-77
2023/08/12 07:26:48;;;;;;;;;2.75;2.75;;;;;;;;5101147;27;46206;-76
2023/08/12 07:29:13;;;;;;;;;5.67;4.67;;;;;;;;5129282;27;45344;-76
2023/08/12 07:31:39;;;;;;;;;3.00;3.00;;;;;;;;5141391;27;45362;-77
2023/08/12 07:34:04;;;;;;;;;4.75;4.75;;;;;;;;5142201;27;45308;-75
2023/08/12 07:36:29;;;;;;;;;5.00;5.00;;;;;;;;5129073;27;45284;-77
2023/08/12 07:38:54;;;;;;;;;5.33;4.67;;;;;;;;5106721;27;45502;-78
2023/08/12 07:41:19;;;;;;;;;4.75;4.75;;;;;;;;5120283;27;45322;-78
2023/08/12 07:43:45;;;;;;;;;2.50;2.50;;;;;;;;5120827;27;45381;-76
2023/08/12 07:46:10;;;;;;;;;4.00;4.00;;;;;;;;5120407;27;45370;-79
2023/08/12 07:48:35;;;;;;;;;5.00;5.00;;;;;;;;5120083;27;45459;-78
2023/08/12 07:51:00;;;;;;;;;3.00;3.00;;;;;;;;5101554;27;45928;-77
2023/08/12 07:53:26;;;;;;;;;3.67;3.67;;;;;;;;5119746;27;45406;-77
2023/08/12 07:55:51;;;;;;;;;3.00;3.00;;;;;;;;5091112;27;47306;-77
2023/08/12 07:58:16;;;;;;;;;4.00;3.50;;;;;;;;5099348;27;45621;-77
2023/08/12 08:00:41;;;;;;;;;2.75;2.75;;;;;;;;5099757;27;45325;-75
2023/08/12 08:03:07;;;;;;;;;5.00;4.25;;;;;;;;5099848;27;45247;-74
2023/08/12 08:05:32;;;;;;;;;5.75;5.75;;;;;;;;5099521;27;45338;-75
2023/08/12 08:07:57;;;;;;;;;4.00;3.00;;;;;;;;5098443;27;45357;-75
2023/08/12 08:10:22;;;;;;;;;3.00;3.00;;;;;;;;5099602;27;45300;-74
2023/08/12 08:12:48;;;;;;;;;5.00;3.00;;;;;;;;5099809;27;45281;-78
2023/08/12 08:15:13;;;;;;;;;6.33;5.00;;;;;;;;5081393;27;47286;-74
2023/08/12 08:17:38;;;;;;;;;3.00;3.00;;;;;;;;5098944;27;45509;-74
2023/08/12 08:20:05;;;;;;;;;0.25;0.25;;;;;;;;5100399;27;45299;-73
2023/08/12 08:22:30;;;;;;;;;2.00;2.00;;;;;;;;5101326;27;45203;-74
2023/08/12 08:24:55;;;;;;;;;0.00;0.00;;;;;;;;5100085;27;45515;-75
2023/08/12 08:27:20;;;;;;;;;1.00;1.00;;;;;;;;5099514;27;45208;-74
2023/08/12 08:29:46;;;;;;;;;1.50;1.50;;;;;;;;5123621;27;45485;-74
2023/08/12 08:32:11;;;;;;;;;1.25;1.25;;;;;;;;5108286;27;45348;-74
2023/08/12 08:34:36;;;;;;;;;1.00;1.00;;;;;;;;5080841;27;47335;-74
2023/08/12 08:37:01;;;;;;;;;0.00;0.00;;;;;;;;5099382;27;45401;-73
2023/08/12 08:39:26;;;;;;;;;0.25;0.25;;;;;;;;5103334;27;45325;-74
2023/08/12 08:41:53;;;;;;;;;0.00;0.00;;;;;;;;5103056;27;45426;-73
2023/08/12 08:44:21;;;;;;;;;0.50;0.50;;;;;;;;5109541;27;45397;-73
2023/08/12 08:46:46;;;;;;;;;0.00;0.00;;;;;;;;5112979;27;45456;-73
2023/08/12 08:49:14;;;;;;;;;1.00;1.00;;;;;;;;5123826;27;45216;-73
2023/08/12 08:51:40;;;;;;;;;1.00;1.00;;;;;;;;5124449;27;45344;-73
2023/08/12 08:54:05;;;;;;;;;0.50;0.50;;;;;;;;5123752;27;45472;-72
2023/08/12 08:56:32;;;;;;;;;0.00;0.00;;;;;;;;5120040;27;45285;-72
2023/08/12 08:58:57;;;;;;;;;1.00;1.00;;;;;;;;5103241;27;45402;-73
2023/08/12 09:01:22;;;;;;;;;2.00;0.50;;;;;;;;5103856;27;45404;-73
2023/08/12 09:03:50;;;;;;;;;2.00;2.00;;;;;;;;5123665;27;45412;-74
2023/08/12 09:06:15;;;;;;;;;2.00;0.00;;;;;;;;5118769;27;45532;-74
2023/08/12 09:08:44;;;;;;;;;1.00;1.00;;;;;;;;5124215;27;45322;-75
2023/08/12 09:11:11;;;;;;;;;0.50;0.50;;;;;;;;5119142;27;45377;-74
2023/08/12 09:13:36;;;;;;;;;2.00;1.00;;;;;;;;5123112;27;45437;-75
2023/08/12 09:16:02;;;;;;;;;0.00;0.00;;;;;;;;5123428;27;45262;-75
2023/08/12 09:18:29;;;;;;;;;1.00;1.00;;;;;;;;5104723;27;46317;-78
2023/08/12 09:20:54;;;;;;;;;3.25;2.00;;;;;;;;5102593;27;45339;-77
2023/08/12 09:23:20;;;;;;;;;1.50;1.50;;;;;;;;5116473;27;45511;-78
2023/08/12 09:25:45;;;;;;;;;1.50;0.25;;;;;;;;5089930;27;46909;-77
2023/08/12 09:28:11;;;;;;;;;0.25;0.25;;;;;;;;5089614;27;45294;-78
2023/08/12 09:30:37;;;;;;;;;1.75;1.75;;;;;;;;5145644;27;45385;-77
2023/08/12 09:33:03;;;;;;;;;2.50;2.50;;;;;;;;5126286;27;46628;-78
2023/08/12 09:35:39;;;;;;;;;1.00;1.00;;;;;;;;5146371;27;45973;-77
2023/08/12 09:38:06;;;;;;;;;2.00;2.00;;;;;;;;5143993;27;45173;-77
2023/08/12 09:40:32;;;;;;;;;4.75;2.00;;;;;;;;5143886;27;45345;-77
2023/08/12 09:42:58;;;;;;;;;2.00;2.00;;;;;;;;5143805;27;45392;-77
2023/08/12 09:45:24;;;;;;;;;1.00;1.00;;;;;;;;5136734;27;46286;-76
2023/08/12 09:47:49;;;;;;;;;2.00;2.00;;;;;;;;5107123;27;45501;-77
2023/08/12 09:50:15;;;;;;;;;1.00;1.00;;;;;;;;5083699;27;45307;-78
2023/08/12 09:52:40;;;;;;;;;1.00;0.75;;;;;;;;5119771;27;45447;-76
2023/08/12 09:55:06;;;;;;;;;1.25;1.25;;;;;;;;5121880;27;46487;-75
2023/08/12 09:57:33;;;;;;;;;2.00;2.00;;;;;;;;5122461;27;45329;-77
2023/08/12 10:00:41;;;;;;;;;1.25;1.25;;;;;;;;5123209;27;45344;-77
2023/08/12 10:03:06;;;;;;;;;2.00;2.00;;;;;;;;5096406;27;45489;-77
2023/08/12 10:05:32;;;;;;;;;4.00;2.00;;;;;;;;5124833;27;45555;-75
2023/08/12 10:07:58;;;;;;;;;2.00;1.25;;;;;;;;5123720;27;45374;-74
2023/08/12 10:10:24;;;;;;;;;4.25;3.50;;;;;;;;5104083;27;45342;-76
2023/08/12 10:12:50;;;;;;;;;2.25;2.00;;;;;;;;5092907;27;46006;-76
2023/08/12 10:15:15;;;;;;;;;2.50;2.50;;;;;;;;5087946;27;48370;-76
2023/08/12 10:17:41;;;;;;;;;3.00;2.25;;;;;;;;5103617;27;45372;-78
2023/08/12 10:20:08;;;;;;;;;2.50;2.50;;;;;;;;5112487;27;45328;-75
2023/08/12 10:22:34;;;;;;;;;1.00;1.00;;;;;;;;5110274;27;45360;-78
2023/08/12 10:25:02;;;;;;;;;2.00;2.00;;;;;;;;5109036;27;46809;-77
2023/08/12 10:27:27;;;;;;;;;1.00;1.00;;;;;;;;5092268;27;45476;-78
2023/08/12 10:29:52;;;;;;;;;3.00;3.00;;;;;;;;5112579;27;45195;-77
2023/08/12 10:32:18;;;;;;;;;3.33;3.00;;;;;;;;5144182;27;45334;-81
2023/08/12 10:34:43;;;;;;;;;1.75;1.50;;;;;;;;5143275;27;45364;-78
2023/08/12 10:37:09;;;;;;;;;4.00;4.00;;;;;;;;5143407;27;45422;-78
2023/08/12 10:39:35;;;;;;;;;2.50;2.50;;;;;;;;5144294;27;45388;-78
2023/08/12 10:42:00;;;;;;;;;2.50;2.50;;;;;;;;5124436;27;46077;-79
2023/08/12 10:44:40;;;;;;;;;1.25;1.25;;;;;;;;5132923;27;46243;-78
2023/08/12 10:47:08;;;;;;;;;3.25;2.50;;;;;;;;5121799;27;45333;-77
2023/08/12 10:49:37;;;;;;;;;5.50;3.25;;;;;;;;5099234;27;45468;-76
2023/08/12 10:52:03;;;;;;;;;2.00;2.00;;;;;;;;5104993;27;46276;-76
2023/08/12 10:54:31;;;;;;;;;2.50;2.50;;;;;;;;5145257;27;46177;-79
2023/08/12 10:57:05;;;;;;;;;4.00;3.00;;;;;;;;5109785;27;45430;-77
2023/08/12 10:59:46;;;;;;;;;2.75;2.25;;;;;;;;5130055;27;45306;-75
2023/08/12 11:02:28;;;;;;;;;3.00;3.00;;;;;;;;5103783;27;46321;-80
2023/08/12 11:05:00;;;;;;;;;3.00;3.00;;;;;;;;5098825;27;48525;-78
2023/08/12 11:07:39;;;;;;;;;2.50;2.50;;;;;;;;5101891;27;45243;-80
2023/08/12 11:10:05;;;;;;;;;3.00;3.00;;;;;;;;5103113;27;45318;-79
2023/08/12 11:12:32;;;;;;;;;4.00;4.00;;;;;;;;5142846;27;45574;-81
2023/08/12 11:15:01;;;;;;;;;3.25;3.25;;;;;;;;5127159;27;47590;-80
2023/08/12 11:17:40;;;;;;;;;5.25;4.00;;;;;;;;5125408;27;45932;-79
2023/08/12 11:20:06;;;;;;;;;3.00;3.00;;;;;;;;5146003;27;45290;-79
2023/08/12 11:22:33;;;;;;;;;2.75;2.75;;;;;;;;5147382;27;44989;-79
2023/08/12 11:24:58;;;;;;;;;4.00;3.25;;;;;;;;5129264;27;47189;-79
2023/08/12 11:27:23;;;;;;;;;7.75;5.75;;;;;;;;5146296;27;45512;-79
2023/08/12 11:29:51;;;;;;;;;4.00;4.00;;;;;;;;5112022;27;45265;-81
2023/08/12 11:32:17;;;;;;;;;3.50;2.50;;;;;;;;5145064;27;45317;-81
2023/08/12 11:34:43;;;;;;;;;2.00;2.00;;;;;;;;5144532;27;45380;-78
2023/08/12 11:37:08;;;;;;;;;2.00;2.00;;;;;;;;5144956;27;45382;-80
2023/08/12 11:39:33;;;;;;;;;2.25;2.25;;;;;;;;5125045;27;45433;-76
2023/08/12 11:41:59;;;;;;;;;2.00;2.00;;;;;;;;5122513;27;46029;-79
2023/08/12 11:44:24;;;;;;;;;2.75;2.75;;;;;;;;5121287;27;46114;-79
2023/08/12 11:46:49;;;;;;;;;2.50;2.50;;;;;;;;5126296;27;45388;-81
2023/08/12 11:49:14;;;;;;;;;1.75;1.75;;;;;;;;5133114;27;45398;-81
2023/08/12 11:51:40;;;;;;;;;2.00;2.00;;;;;;;;5131098;27;45487;-80
2023/08/12 11:54:06;;;;;;;;;3.00;2.50;;;;;;;;5105268;27;46995;-81
2023/08/12 11:56:31;;;;;;;;;2.00;2.00;;;;;;;;5125759;27;45337;-82
2023/08/12 11:58:57;;;;;;;;;1.75;1.75;;;;;;;;5106403;27;45388;-81
2023/08/12 12:01:23;;;;;;;;;1.00;1.00;;;;;;;;5126373;27;45274;-81
2023/08/12 12:03:51;;;;;;;;;3.25;2.50;;;;;;;;5122651;27;45223;-82
2023/08/12 12:06:17;;;;;;;;;3.50;2.00;;;;;;;;5103648;27;45331;-80
2023/08/12 12:08:44;;;;;;;;;2.00;2.00;;;;;;;;5120465;27;45942;-80
2023/08/12 12:11:09;;;;;;;;;1.50;1.00;;;;;;;;5119357;27;45453;-78
2023/08/12 12:13:35;;;;;;;;;1.25;1.25;;;;;;;;5127353;27;45463;-81
2023/08/12 12:16:00;;;;;;;;;3.25;1.75;;;;;;;;5126953;27;45449;-80
2023/08/12 12:18:26;;;;;;;;;4.00;3.00;;;;;;;;5125802;27;45462;-81
2023/08/12 12:20:57;;;;;;;;;2.00;2.00;;;;;;;;5124503;27;45598;-79
2023/08/12 12:23:26;;;;;;;;;1.25;1.25;;;;;;;;5124798;27;45455;-79
2023/08/12 12:25:56;;;;;;;;;2.50;2.50;;;;;;;;5109062;27;45339;-80
2023/08/12 12:28:21;;;;;;;;;3.00;3.00;;;;;;;;5110639;27;45362;-78
2023/08/12 12:30:47;;;;;;;;;3.25;3.25;;;;;;;;5148219;27;45479;-77
2023/08/12 12:33:12;;;;;;;;;5.00;3.00;;;;;;;;5148015;27;45375;-77
2023/08/12 12:35:37;;;;;;;;;2.25;2.25;;;;;;;;5129175;27;45622;-77
2023/08/12 12:38:02;;;;;;;;;2.25;2.25;;;;;;;;5148533;27;45501;-77
2023/08/12 12:40:27;;;;;;;;;1.00;1.00;;;;;;;;5148245;27;45368;-77
2023/08/12 12:42:53;;;;;;;;;1.00;1.00;;;;;;;;5147978;27;46294;-77
2023/08/12 12:45:18;;;;;;;;;3.50;3.50;;;;;;;;5148109;27;45351;-77
2023/08/12 12:47:43;;;;;;;;;1.00;1.00;;;;;;;;5148493;27;45384;-77
2023/08/12 12:50:08;;;;;;;;;3.00;3.00;;;;;;;;5147880;27;45375;-77
2023/08/12 12:52:33;;;;;;;;;4.00;3.00;;;;;;;;5147721;27;45302;-77
2023/08/12 12:55:00;;;;;;;;;1.75;1.75;;;;;;;;5148196;27;45342;-77
2023/08/12 12:57:25;;;;;;;;;3.00;3.00;;;;;;;;5129432;27;45308;-77
2023/08/12 12:59:50;;;;;;;;;2.00;2.00;;;;;;;;5147921;27;45242;-78
2023/08/12 13:02:16;;;;;;;;;2.50;1.75;;;;;;;;5148031;27;46330;-77
2023/08/12 13:04:41;;;;;;;;;4.25;3.00;;;;;;;;5147761;27;45247;-78
2023/08/12 13:07:06;;;;;;;;;4.25;4.25;;;;;;;;5129140;27;45309;-77
2023/08/12 13:09:31;;;;;;;;;2.75;2.75;;;;;;;;5129242;27;46143;-77
2023/08/12 13:11:58;;;;;;;;;2.00;2.00;;;;;;;;5147880;27;46316;-78
2023/08/12 13:14:23;;;;;;;;;2.50;2.50;;;;;;;;5147883;27;45175;-78
2023/08/12 13:16:48;;;;;;;;;2.00;2.00;;;;;;;;5147821;27;45400;-78
2023/08/12 13:19:14;;;;;;;;;1.25;1.00;;;;;;;;5147517;27;45230;-78
2023/08/12 13:21:39;;;;;;;;;1.75;1.50;;;;;;;;5147670;27;45301;-78
2023/08/12 13:24:04;;;;;;;;;2.00;2.00;;;;;;;;5126873;27;45959;-79
2023/08/12 13:26:30;;;;;;;;;1.75;1.75;;;;;;;;5133578;27;45537;-79
2023/08/12 13:28:55;;;;;;;;;1.75;1.50;;;;;;;;5110279;27;46170;-78
2023/08/12 13:31:20;;;;;;;;;4.25;4.25;;;;;;;;5144228;27;45479;-78
2023/08/12 13:33:45;;;;;;;;;4.00;3.00;;;;;;;;5126273;27;45466;-79
2023/08/12 13:36:11;;;;;;;;;1.00;1.00;;;;;;;;5122434;27;45287;-79
2023/08/12 13:38:36;;;;;;;;;2.00;2.00;;;;;;;;5121854;27;45283;-75
2023/08/12 13:41:01;;;;;;;;;1.25;1.25;;;;;;;;5120727;27;47720;-77
2023/08/12 13:43:27;;;;;;;;;2.75;2.75;;;;;;;;5119567;27;45354;-75
2023/08/12 13:45:53;;;;;;;;;3.50;3.00;;;;;;;;5099824;27;45422;-76
2023/08/12 13:48:18;;;;;;;;;2.50;2.50;;;;;;;;5131539;27;45681;-78
2023/08/12 13:50:43;;;;;;;;;1.50;1.50;;;;;;;;5142474;27;46321;-77
2023/08/12 13:53:08;;;;;;;;;1.00;1.00;;;;;;;;5142648;27;45399;-76
2023/08/12 13:55:33;;;;;;;;;3.50;3.50;;;;;;;;5143054;27;45403;-75
2023/08/12 13:57:59;;;;;;;;;1.00;1.00;;;;;;;;5124265;27;46294;-77
2023/08/12 14:00:24;;;;;;;;;2.00;2.00;;;;;;;;5142374;27;45364;-78
2023/08/12 14:02:49;;;;;;;;;2.00;1.50;;;;;;;;5118554;27;45427;-75
2023/08/12 14:05:15;;;;;;;;;2.75;2.75;;;;;;;;5121651;27;45295;-75
2023/08/12 14:07:40;;;;;;;;;0.75;0.75;;;;;;;;5122726;27;45354;-75
2023/08/12 14:10:06;;;;;;;;;1.50;1.50;;;;;;;;5122396;27;45301;-75
2023/08/12 14:12:31;;;;;;;;;2.50;2.50;;;;;;;;5105667;27;45372;-75
2023/08/12 14:14:57;;;;;;;;;4.00;1.00;;;;;;;;5121153;27;45349;-75
2023/08/12 14:17:23;;;;;;;;;2.75;2.75;;;;;;;;5121168;27;45393;-76
2023/08/12 14:19:49;;;;;;;;;1.75;1.75;;;;;;;;5120795;27;45443;-75
2023/08/12 14:22:14;;;;;;;;;1.50;1.50;;;;;;;;5101429;27;45690;-75
2023/08/12 14:24:39;;;;;;;;;2.00;2.00;;;;;;;;5120331;27;45292;-76
2023/08/12 14:27:04;;;;;;;;;2.00;1.25;;;;;;;;5089617;27;46529;-75
2023/08/12 14:29:29;;;;;;;;;1.50;1.50;;;;;;;;5118644;27;45344;-76
2023/08/12 14:31:55;;;;;;;;;1.25;1.00;;;;;;;;5111787;27;45314;-75
2023/08/12 14:34:20;;;;;;;;;2.75;2.75;;;;;;;;5110157;27;45324;-76